sensor_id;sensor_type;location;lat;lon;timestamp;P1;durP1;ratioP1;P2;durP2;ratioP2
22778;SDS011;11556;51.194;3.800;2024-03-08T00:00:18;44.55;;;21.70;;
22778;SDS011;11556;51.194;3.800;2024-03-08T00:02:45;41.85;;;21.80;;
22778;SDS011;11556;51.194;3.800;2024-03-08T00:05:11;45.00;;;22.98;;
22778;SDS011;11556;51.194;3.800;2024-03-08T00:07:37;47.50;;;23.73;;
22778;SDS011;11556;51.194;3.800;2024-03-08T00:10:04;52.00;;;22.58;;
22778;SDS011;11556;51.194;3.800;2024-03-08T00:12:43;48.08;;;23.08;;
22778;SDS011;11556;51.194;3.800;2024-03-08T00:15:13;55.58;;;24.90;;
22778;SDS011;11556;51.194;3.800;2024-03-08T00:17:40;52.70;;;23.80;;
22778;SDS011;11556;51.194;3.800;2024-03-08T00:20:07;53.42;;;24.95;;
22778;SDS011;11556;51.194;3.800;2024-03-08T00:22:36;50.95;;;24.30;;
22778;SDS011;11556;51.194;3.800;2024-03-08T00:25:03;50.08;;;24.40;;
22778;SDS011;11556;51.194;3.800;2024-03-08T00:27:29;55.95;;;25.73;;
22778;SDS011;11556;51.194;3.800;2024-03-08T00:29:58;53.25;;;24.67;;
22778;SDS011;11556;51.194;3.800;2024-03-08T00:32:24;51.83;;;24.52;;
22778;SDS011;11556;51.194;3.800;2024-03-08T00:34:50;56.00;;;25.55;;
22778;SDS011;11556;51.194;3.800;2024-03-08T00:37:19;60.53;;;25.88;;
22778;SDS011;11556;51.194;3.800;2024-03-08T00:39:48;53.60;;;26.75;;
22778;SDS011;11556;51.194;3.800;2024-03-08T00:42:15;59.70;;;26.10;;
22778;SDS011;11556;51.194;3.800;2024-03-08T00:44:44;52.90;;;23.73;;
22778;SDS011;11556;51.194;3.800;2024-03-08T00:47:10;59.75;;;27.02;;
22778;SDS011;11556;51.194;3.800;2024-03-08T00:49:36;64.03;;;27.95;;
22778;SDS011;11556;51.194;3.800;2024-03-08T00:52:03;60.75;;;27.20;;
22778;SDS011;11556;51.194;3.800;2024-03-08T00:54:33;61.22;;;27.42;;
22778;SDS011;11556;51.194;3.800;2024-03-08T00:56:59;62.33;;;27.90;;
22778;SDS011;11556;51.194;3.800;2024-03-08T00:59:28;61.47;;;28.00;;
22778;SDS011;11556;51.194;3.800;2024-03-08T01:01:59;60.00;;;28.83;;
22778;SDS011;11556;51.194;3.800;2024-03-08T01:04:26;58.80;;;27.00;;
22778;SDS011;11556;51.194;3.800;2024-03-08T01:06:54;58.58;;;27.50;;
22778;SDS011;11556;51.194;3.800;2024-03-08T01:09:21;63.38;;;28.33;;
22778;SDS011;11556;51.194;3.800;2024-03-08T01:11:47;62.88;;;28.05;;
22778;SDS011;11556;51.194;3.800;2024-03-08T01:14:14;59.88;;;27.13;;
22778;SDS011;11556;51.194;3.800;2024-03-08T01:16:40;62.00;;;26.98;;
22778;SDS011;11556;51.194;3.800;2024-03-08T01:19:06;59.80;;;27.17;;
22778;SDS011;11556;51.194;3.800;2024-03-08T01:21:31;57.80;;;26.63;;
22778;SDS011;11556;51.194;3.800;2024-03-08T01:23:57;62.55;;;27.73;;
22778;SDS011;11556;51.194;3.800;2024-03-08T01:26:23;61.45;;;28.13;;
22778;SDS011;11556;51.194;3.800;2024-03-08T01:28:49;59.65;;;27.15;;
22778;SDS011;11556;51.194;3.800;2024-03-08T01:31:15;59.17;;;28.55;;
22778;SDS011;11556;51.194;3.800;2024-03-08T01:33:41;61.97;;;26.90;;
22778;SDS011;11556;51.194;3.800;2024-03-08T01:36:07;63.08;;;26.20;;
22778;SDS011;11556;51.194;3.800;2024-03-08T01:38:33;54.10;;;27.80;;
22778;SDS011;11556;51.194;3.800;2024-03-08T01:41:01;55.13;;;26.48;;
22778;SDS011;11556;51.194;3.800;2024-03-08T01:43:28;61.42;;;27.85;;
22778;SDS011;11556;51.194;3.800;2024-03-08T01:46:00;60.60;;;27.25;;
22778;SDS011;11556;51.194;3.800;2024-03-08T01:48:29;61.35;;;27.92;;
22778;SDS011;11556;51.194;3.800;2024-03-08T01:50:56;57.85;;;25.80;;
22778;SDS011;11556;51.194;3.800;2024-03-08T01:53:26;58.83;;;26.23;;
22778;SDS011;11556;51.194;3.800;2024-03-08T01:55:54;55.78;;;26.63;;
22778;SDS011;11556;51.194;3.800;2024-03-08T01:58:22;61.63;;;26.45;;
22778;SDS011;11556;51.194;3.800;2024-03-08T02:00:49;56.88;;;26.95;;
22778;SDS011;11556;51.194;3.800;2024-03-08T02:03:15;57.50;;;27.52;;
22778;SDS011;11556;51.194;3.800;2024-03-08T02:05:41;56.42;;;25.30;;
22778;SDS011;11556;51.194;3.800;2024-03-08T02:08:08;58.20;;;26.98;;
22778;SDS011;11556;51.194;3.800;2024-03-08T02:10:39;57.00;;;26.48;;
22778;SDS011;11556;51.194;3.800;2024-03-08T02:13:11;61.03;;;26.20;;
22778;SDS011;11556;51.194;3.800;2024-03-08T02:15:56;57.13;;;27.77;;
22778;SDS011;11556;51.194;3.800;2024-03-08T02:18:25;54.97;;;26.70;;
22778;SDS011;11556;51.194;3.800;2024-03-08T02:20:52;61.42;;;26.10;;
22778;SDS011;11556;51.194;3.800;2024-03-08T02:23:19;62.28;;;26.58;;
22778;SDS011;11556;51.194;3.800;2024-03-08T02:25:45;54.80;;;26.73;;
22778;SDS011;11556;51.194;3.800;2024-03-08T02:28:12;55.03;;;26.05;;
22778;SDS011;11556;51.194;3.800;2024-03-08T02:30:38;52.78;;;26.90;;
22778;SDS011;11556;51.194;3.800;2024-03-08T02:33:04;55.15;;;26.25;;
22778;SDS011;11556;51.194;3.800;2024-03-08T02:35:31;53.95;;;27.48;;
22778;SDS011;11556;51.194;3.800;2024-03-08T02:37:57;56.45;;;26.83;;
22778;SDS011;11556;51.194;3.800;2024-03-08T02:40:23;57.83;;;28.38;;
22778;SDS011;11556;51.194;3.800;2024-03-08T02:42:49;54.35;;;27.98;;
22778;SDS011;11556;51.194;3.800;2024-03-08T02:45:14;56.35;;;26.67;;
22778;SDS011;11556;51.194;3.800;2024-03-08T02:47:40;51.40;;;25.30;;
22778;SDS011;11556;51.194;3.800;2024-03-08T02:50:06;55.95;;;27.40;;
22778;SDS011;11556;51.194;3.800;2024-03-08T02:52:35;55.15;;;26.75;;
22778;SDS011;11556;51.194;3.800;2024-03-08T02:55:01;50.60;;;26.15;;
22778;SDS011;11556;51.194;3.800;2024-03-08T02:57:27;55.08;;;26.98;;
22778;SDS011;11556;51.194;3.800;2024-03-08T02:59:53;57.30;;;27.40;;
22778;SDS011;11556;51.194;3.800;2024-03-08T03:02:19;54.85;;;26.83;;
22778;SDS011;11556;51.194;3.800;2024-03-08T03:04:45;57.22;;;26.75;;
22778;SDS011;11556;51.194;3.800;2024-03-08T03:07:10;51.83;;;27.13;;
22778;SDS011;11556;51.194;3.800;2024-03-08T03:09:36;51.88;;;26.83;;
22778;SDS011;11556;51.194;3.800;2024-03-08T03:12:02;54.38;;;27.35;;
22778;SDS011;11556;51.194;3.800;2024-03-08T03:14:28;54.63;;;26.23;;
22778;SDS011;11556;51.194;3.800;2024-03-08T03:16:53;52.97;;;26.75;;
22778;SDS011;11556;51.194;3.800;2024-03-08T03:19:20;52.28;;;26.33;;
22778;SDS011;11556;51.194;3.800;2024-03-08T03:21:46;51.83;;;26.00;;
22778;SDS011;11556;51.194;3.800;2024-03-08T03:24:12;49.58;;;27.45;;
22778;SDS011;11556;51.194;3.800;2024-03-08T03:26:41;49.45;;;24.05;;
22778;SDS011;11556;51.194;3.800;2024-03-08T03:29:08;51.83;;;26.73;;
22778;SDS011;11556;51.194;3.800;2024-03-08T03:31:36;52.55;;;28.13;;
22778;SDS011;11556;51.194;3.800;2024-03-08T03:34:02;50.63;;;26.95;;
22778;SDS011;11556;51.194;3.800;2024-03-08T03:36:29;45.42;;;23.25;;
22778;SDS011;11556;51.194;3.800;2024-03-08T03:38:55;46.80;;;25.60;;
22778;SDS011;11556;51.194;3.800;2024-03-08T03:41:40;54.67;;;26.88;;
22778;SDS011;11556;51.194;3.800;2024-03-08T03:44:07;47.53;;;25.70;;
22778;SDS011;11556;51.194;3.800;2024-03-08T03:46:33;45.33;;;25.75;;
22778;SDS011;11556;51.194;3.800;2024-03-08T03:48:58;47.28;;;25.17;;
22778;SDS011;11556;51.194;3.800;2024-03-08T03:51:24;49.97;;;26.70;;
22778;SDS011;11556;51.194;3.800;2024-03-08T03:53:50;47.15;;;25.48;;
22778;SDS011;11556;51.194;3.800;2024-03-08T03:56:17;48.85;;;25.98;;
22778;SDS011;11556;51.194;3.800;2024-03-08T03:58:43;50.33;;;24.55;;
22778;SDS011;11556;51.194;3.800;2024-03-08T04:01:09;49.08;;;25.25;;
22778;SDS011;11556;51.194;3.800;2024-03-08T04:03:35;49.40;;;25.98;;
22778;SDS011;11556;51.194;3.800;2024-03-08T04:06:01;46.35;;;23.50;;
22778;SDS011;11556;51.194;3.800;2024-03-08T04:08:29;44.80;;;22.77;;
22778;SDS011;11556;51.194;3.800;2024-03-08T04:10:56;53.35;;;25.17;;
22778;SDS011;11556;51.194;3.800;2024-03-08T04:13:23;47.88;;;25.17;;
22778;SDS011;11556;51.194;3.800;2024-03-08T04:15:48;50.42;;;24.48;;
22778;SDS011;11556;51.194;3.800;2024-03-08T04:18:14;45.30;;;25.05;;
22778;SDS011;11556;51.194;3.800;2024-03-08T04:20:40;44.55;;;23.67;;
22778;SDS011;11556;51.194;3.800;2024-03-08T04:23:05;46.47;;;23.42;;
22778;SDS011;11556;51.194;3.800;2024-03-08T04:25:31;45.72;;;24.83;;
22778;SDS011;11556;51.194;3.800;2024-03-08T04:27:57;46.72;;;25.33;;
22778;SDS011;11556;51.194;3.800;2024-03-08T04:30:23;44.63;;;24.58;;
22778;SDS011;11556;51.194;3.800;2024-03-08T04:32:49;45.40;;;24.50;;
22778;SDS011;11556;51.194;3.800;2024-03-08T04:35:15;45.72;;;25.80;;
22778;SDS011;11556;51.194;3.800;2024-03-08T04:37:41;46.47;;;24.70;;
22778;SDS011;11556;51.194;3.800;2024-03-08T04:40:07;47.03;;;25.05;;
22778;SDS011;11556;51.194;3.800;2024-03-08T04:42:33;50.03;;;26.00;;
22778;SDS011;11556;51.194;3.800;2024-03-08T04:44:59;51.47;;;26.45;;
22778;SDS011;11556;51.194;3.800;2024-03-08T04:47:25;43.88;;;23.52;;
22778;SDS011;11556;51.194;3.800;2024-03-08T04:49:50;46.08;;;24.48;;
22778;SDS011;11556;51.194;3.800;2024-03-08T04:52:16;42.30;;;24.10;;
22778;SDS011;11556;51.194;3.800;2024-03-08T04:54:42;46.08;;;23.45;;
22778;SDS011;11556;51.194;3.800;2024-03-08T04:57:09;47.97;;;25.20;;
22778;SDS011;11556;51.194;3.800;2024-03-08T04:59:35;47.90;;;23.63;;
22778;SDS011;11556;51.194;3.800;2024-03-08T05:02:01;44.05;;;24.80;;
22778;SDS011;11556;51.194;3.800;2024-03-08T05:04:27;45.15;;;25.48;;
22778;SDS011;11556;51.194;3.800;2024-03-08T05:06:54;48.50;;;25.25;;
22778;SDS011;11556;51.194;3.800;2024-03-08T05:09:20;48.42;;;23.73;;
22778;SDS011;11556;51.194;3.800;2024-03-08T05:11:46;42.33;;;22.05;;
22778;SDS011;11556;51.194;3.800;2024-03-08T05:14:12;44.88;;;25.42;;
22778;SDS011;11556;51.194;3.800;2024-03-08T05:16:44;41.58;;;23.33;;
22778;SDS011;11556;51.194;3.800;2024-03-08T05:19:13;45.15;;;25.10;;
22778;SDS011;11556;51.194;3.800;2024-03-08T05:21:41;50.10;;;24.63;;
22778;SDS011;11556;51.194;3.800;2024-03-08T05:24:11;49.63;;;24.60;;
22778;SDS011;11556;51.194;3.800;2024-03-08T05:26:38;43.03;;;24.98;;
22778;SDS011;11556;51.194;3.800;2024-03-08T05:29:04;47.95;;;25.27;;
22778;SDS011;11556;51.194;3.800;2024-03-08T05:31:31;44.25;;;24.40;;
22778;SDS011;11556;51.194;3.800;2024-03-08T05:34:07;46.00;;;24.38;;
22778;SDS011;11556;51.194;3.800;2024-03-08T05:36:35;47.85;;;26.25;;
22778;SDS011;11556;51.194;3.800;2024-03-08T05:39:00;46.65;;;25.50;;
22778;SDS011;11556;51.194;3.800;2024-03-08T05:41:26;47.67;;;24.92;;
22778;SDS011;11556;51.194;3.800;2024-03-08T05:43:52;51.50;;;26.40;;
22778;SDS011;11556;51.194;3.800;2024-03-08T05:46:18;44.38;;;24.60;;
22778;SDS011;11556;51.194;3.800;2024-03-08T05:48:44;49.22;;;25.70;;
22778;SDS011;11556;51.194;3.800;2024-03-08T05:51:10;45.05;;;25.17;;
22778;SDS011;11556;51.194;3.800;2024-03-08T05:53:37;49.17;;;25.02;;
22778;SDS011;11556;51.194;3.800;2024-03-08T05:56:02;46.28;;;26.23;;
22778;SDS011;11556;51.194;3.800;2024-03-08T05:58:28;46.20;;;26.10;;
22778;SDS011;11556;51.194;3.800;2024-03-08T06:00:57;47.38;;;25.10;;
22778;SDS011;11556;51.194;3.800;2024-03-08T06:03:22;46.97;;;25.58;;
22778;SDS011;11556;51.194;3.800;2024-03-08T06:05:48;47.65;;;26.23;;
22778;SDS011;11556;51.194;3.800;2024-03-08T06:08:14;48.75;;;26.13;;
22778;SDS011;11556;51.194;3.800;2024-03-08T06:10:40;47.67;;;26.70;;
22778;SDS011;11556;51.194;3.800;2024-03-08T06:13:06;43.53;;;24.85;;
22778;SDS011;11556;51.194;3.800;2024-03-08T06:15:32;48.30;;;26.33;;
22778;SDS011;11556;51.194;3.800;2024-03-08T06:17:57;51.28;;;27.40;;
22778;SDS011;11556;51.194;3.800;2024-03-08T06:20:23;45.65;;;24.42;;
22778;SDS011;11556;51.194;3.800;2024-03-08T06:22:51;48.92;;;25.15;;
22778;SDS011;11556;51.194;3.800;2024-03-08T06:25:17;51.03;;;26.90;;
22778;SDS011;11556;51.194;3.800;2024-03-08T06:27:43;47.97;;;25.70;;
22778;SDS011;11556;51.194;3.800;2024-03-08T06:30:11;47.72;;;25.10;;
22778;SDS011;11556;51.194;3.800;2024-03-08T06:32:37;47.25;;;25.38;;
22778;SDS011;11556;51.194;3.800;2024-03-08T06:35:05;48.03;;;26.05;;
22778;SDS011;11556;51.194;3.800;2024-03-08T06:37:32;47.22;;;25.67;;
22778;SDS011;11556;51.194;3.800;2024-03-08T06:39:58;46.35;;;25.73;;
22778;SDS011;11556;51.194;3.800;2024-03-08T06:42:25;49.33;;;26.30;;
22778;SDS011;11556;51.194;3.800;2024-03-08T06:44:52;48.47;;;26.05;;
22778;SDS011;11556;51.194;3.800;2024-03-08T06:47:20;49.17;;;25.55;;
22778;SDS011;11556;51.194;3.800;2024-03-08T06:49:46;50.22;;;25.98;;
22778;SDS011;11556;51.194;3.800;2024-03-08T06:52:12;45.58;;;24.27;;
22778;SDS011;11556;51.194;3.800;2024-03-08T06:54:37;45.85;;;24.52;;
22778;SDS011;11556;51.194;3.800;2024-03-08T06:57:04;45.08;;;25.17;;
22778;SDS011;11556;51.194;3.800;2024-03-08T06:59:30;43.13;;;24.02;;
22778;SDS011;11556;51.194;3.800;2024-03-08T07:01:56;47.40;;;24.30;;
22778;SDS011;11556;51.194;3.800;2024-03-08T07:04:22;45.15;;;24.20;;
22778;SDS011;11556;51.194;3.800;2024-03-08T07:06:51;48.80;;;23.30;;
22778;SDS011;11556;51.194;3.800;2024-03-08T07:09:17;41.15;;;24.58;;
22778;SDS011;11556;51.194;3.800;2024-03-08T07:11:43;43.88;;;24.77;;
22778;SDS011;11556;51.194;3.800;2024-03-08T07:14:08;44.03;;;23.70;;
22778;SDS011;11556;51.194;3.800;2024-03-08T07:16:34;47.13;;;24.85;;
22778;SDS011;11556;51.194;3.800;2024-03-08T07:19:04;45.25;;;23.55;;
22778;SDS011;11556;51.194;3.800;2024-03-08T07:21:30;46.13;;;25.52;;
22778;SDS011;11556;51.194;3.800;2024-03-08T07:23:56;44.78;;;24.70;;
22778;SDS011;11556;51.194;3.800;2024-03-08T07:26:25;38.58;;;22.90;;
22778;SDS011;11556;51.194;3.800;2024-03-08T07:28:50;41.70;;;21.95;;
22778;SDS011;11556;51.194;3.800;2024-03-08T07:31:17;43.30;;;23.67;;
22778;SDS011;11556;51.194;3.800;2024-03-08T07:33:52;41.58;;;22.85;;
22778;SDS011;11556;51.194;3.800;2024-03-08T07:36:20;41.55;;;23.00;;
22778;SDS011;11556;51.194;3.800;2024-03-08T07:38:47;37.50;;;22.30;;
22778;SDS011;11556;51.194;3.800;2024-03-08T07:41:13;40.72;;;21.50;;
22778;SDS011;11556;51.194;3.800;2024-03-08T07:43:40;38.25;;;22.08;;
22778;SDS011;11556;51.194;3.800;2024-03-08T07:46:05;39.15;;;22.40;;
22778;SDS011;11556;51.194;3.800;2024-03-08T07:48:31;44.30;;;21.80;;
22778;SDS011;11556;51.194;3.800;2024-03-08T07:50:57;35.53;;;21.50;;
22778;SDS011;11556;51.194;3.800;2024-03-08T07:53:22;37.90;;;20.48;;
22778;SDS011;11556;51.194;3.800;2024-03-08T07:55:51;38.58;;;22.00;;
22778;SDS011;11556;51.194;3.800;2024-03-08T07:58:17;36.08;;;20.92;;
22778;SDS011;11556;51.194;3.800;2024-03-08T08:00:43;39.00;;;22.52;;
22778;SDS011;11556;51.194;3.800;2024-03-08T08:03:09;36.33;;;21.52;;
22778;SDS011;11556;51.194;3.800;2024-03-08T08:05:35;37.42;;;21.65;;
22778;SDS011;11556;51.194;3.800;2024-03-08T08:08:02;39.08;;;20.65;;
22778;SDS011;11556;51.194;3.800;2024-03-08T08:10:31;38.42;;;21.30;;
22778;SDS011;11556;51.194;3.800;2024-03-08T08:12:57;36.22;;;20.90;;
22778;SDS011;11556;51.194;3.800;2024-03-08T08:15:23;34.17;;;21.10;;
22778;SDS011;11556;51.194;3.800;2024-03-08T08:17:49;36.47;;;21.40;;
22778;SDS011;11556;51.194;3.800;2024-03-08T08:20:16;38.67;;;22.33;;
22778;SDS011;11556;51.194;3.800;2024-03-08T08:22:43;33.08;;;20.23;;
22778;SDS011;11556;51.194;3.800;2024-03-08T08:25:09;36.15;;;21.50;;
22778;SDS011;11556;51.194;3.800;2024-03-08T08:27:38;38.13;;;19.70;;
22778;SDS011;11556;51.194;3.800;2024-03-08T08:30:05;35.10;;;20.92;;
22778;SDS011;11556;51.194;3.800;2024-03-08T08:32:33;36.15;;;21.13;;
22778;SDS011;11556;51.194;3.800;2024-03-08T08:35:01;35.25;;;19.88;;
22778;SDS011;11556;51.194;3.800;2024-03-08T08:37:27;33.85;;;20.77;;
22778;SDS011;11556;51.194;3.800;2024-03-08T08:39:53;37.03;;;20.02;;
22778;SDS011;11556;51.194;3.800;2024-03-08T08:42:19;35.17;;;19.70;;
22778;SDS011;11556;51.194;3.800;2024-03-08T08:44:45;36.42;;;18.85;;
22778;SDS011;11556;51.194;3.800;2024-03-08T08:47:11;33.30;;;19.67;;
22778;SDS011;11556;51.194;3.800;2024-03-08T08:49:38;32.90;;;19.55;;
22778;SDS011;11556;51.194;3.800;2024-03-08T08:52:03;34.35;;;20.33;;
22778;SDS011;11556;51.194;3.800;2024-03-08T08:54:29;34.42;;;19.02;;
22778;SDS011;11556;51.194;3.800;2024-03-08T08:56:56;34.45;;;19.08;;
22778;SDS011;11556;51.194;3.800;2024-03-08T08:59:21;33.83;;;18.65;;
22778;SDS011;11556;51.194;3.800;2024-03-08T09:01:50;33.40;;;19.30;;
22778;SDS011;11556;51.194;3.800;2024-03-08T09:04:18;31.63;;;17.42;;
22778;SDS011;11556;51.194;3.800;2024-03-08T09:06:44;34.15;;;19.73;;
22778;SDS011;11556;51.194;3.800;2024-03-08T09:09:10;31.67;;;19.13;;
22778;SDS011;11556;51.194;3.800;2024-03-08T09:11:38;31.90;;;19.33;;
22778;SDS011;11556;51.194;3.800;2024-03-08T09:14:06;35.08;;;18.13;;
22778;SDS011;11556;51.194;3.800;2024-03-08T09:16:33;36.42;;;19.27;;
22778;SDS011;11556;51.194;3.800;2024-03-08T09:18:59;35.70;;;19.70;;
22778;SDS011;11556;51.194;3.800;2024-03-08T09:21:25;33.33;;;19.10;;
22778;SDS011;11556;51.194;3.800;2024-03-08T09:23:52;31.95;;;18.52;;
22778;SDS011;11556;51.194;3.800;2024-03-08T09:26:18;29.38;;;18.38;;
22778;SDS011;11556;51.194;3.800;2024-03-08T09:28:44;31.83;;;18.48;;
22778;SDS011;11556;51.194;3.800;2024-03-08T09:31:10;37.50;;;17.00;;
22778;SDS011;11556;51.194;3.800;2024-03-08T09:33:36;29.77;;;17.27;;
22778;SDS011;11556;51.194;3.800;2024-03-08T09:36:04;28.55;;;14.68;;
22778;SDS011;11556;51.194;3.800;2024-03-08T09:38:32;32.40;;;17.05;;
22778;SDS011;11556;51.194;3.800;2024-03-08T09:40:59;30.48;;;15.85;;
22778;SDS011;11556;51.194;3.800;2024-03-08T09:43:26;28.48;;;17.08;;
22778;SDS011;11556;51.194;3.800;2024-03-08T09:45:58;27.42;;;15.65;;
22778;SDS011;11556;51.194;3.800;2024-03-08T09:48:24;29.35;;;16.88;;
22778;SDS011;11556;51.194;3.800;2024-03-08T09:50:51;31.33;;;17.10;;
22778;SDS011;11556;51.194;3.800;2024-03-08T09:53:17;31.92;;;19.00;;
22778;SDS011;11556;51.194;3.800;2024-03-08T09:55:42;29.95;;;17.17;;
22778;SDS011;11556;51.194;3.800;2024-03-08T09:58:11;28.75;;;16.75;;
22778;SDS011;11556;51.194;3.800;2024-03-08T10:01:06;28.85;;;17.42;;
22778;SDS011;11556;51.194;3.800;2024-03-08T10:03:32;25.40;;;16.02;;
22778;SDS011;11556;51.194;3.800;2024-03-08T10:05:58;26.05;;;16.38;;
22778;SDS011;11556;51.194;3.800;2024-03-08T10:08:27;27.42;;;16.15;;
22778;SDS011;11556;51.194;3.800;2024-03-08T10:10:56;30.08;;;16.00;;
22778;SDS011;11556;51.194;3.800;2024-03-08T10:13:25;28.00;;;16.48;;
22778;SDS011;11556;51.194;3.800;2024-03-08T10:15:54;31.00;;;16.48;;
22778;SDS011;11556;51.194;3.800;2024-03-08T10:18:20;29.90;;;17.23;;
22778;SDS011;11556;51.194;3.800;2024-03-08T10:21:01;25.27;;;15.82;;
22778;SDS011;11556;51.194;3.800;2024-03-08T10:23:32;25.70;;;14.23;;
22778;SDS011;11556;51.194;3.800;2024-03-08T10:26:08;28.17;;;15.90;;
22778;SDS011;11556;51.194;3.800;2024-03-08T10:28:35;24.38;;;15.15;;
22778;SDS011;11556;51.194;3.800;2024-03-08T10:31:00;28.10;;;15.77;;
22778;SDS011;11556;51.194;3.800;2024-03-08T10:33:26;26.73;;;16.73;;
22778;SDS011;11556;51.194;3.800;2024-03-08T10:35:52;26.50;;;14.77;;
22778;SDS011;11556;51.194;3.800;2024-03-08T10:38:21;30.70;;;17.08;;
22778;SDS011;11556;51.194;3.800;2024-03-08T10:40:49;26.50;;;14.70;;
22778;SDS011;11556;51.194;3.800;2024-03-08T10:43:23;28.55;;;17.15;;
22778;SDS011;11556;51.194;3.800;2024-03-08T10:49:01;26.98;;;16.38;;
22778;SDS011;11556;51.194;3.800;2024-03-08T10:51:32;24.85;;;16.25;;
22778;SDS011;11556;51.194;3.800;2024-03-08T10:53:59;25.08;;;16.35;;
22778;SDS011;11556;51.194;3.800;2024-03-08T10:56:25;26.60;;;16.52;;
22778;SDS011;11556;51.194;3.800;2024-03-08T10:58:52;27.58;;;16.25;;
22778;SDS011;11556;51.194;3.800;2024-03-08T11:01:19;24.55;;;15.35;;
22778;SDS011;11556;51.194;3.800;2024-03-08T11:03:45;26.33;;;15.23;;
22778;SDS011;11556;51.194;3.800;2024-03-08T11:09:01;26.58;;;16.73;;
22778;SDS011;11556;51.194;3.800;2024-03-08T11:11:27;28.20;;;16.73;;
22778;SDS011;11556;51.194;3.800;2024-03-08T11:13:55;23.88;;;16.60;;
22778;SDS011;11556;51.194;3.800;2024-03-08T11:18:55;24.88;;;14.55;;
22778;SDS011;11556;51.194;3.800;2024-03-08T11:21:29;23.92;;;14.25;;
22778;SDS011;11556;51.194;3.800;2024-03-08T11:24:07;24.20;;;15.45;;
22778;SDS011;11556;51.194;3.800;2024-03-08T11:26:38;24.00;;;15.68;;
22778;SDS011;11556;51.194;3.800;2024-03-08T11:34:33;26.30;;;15.55;;
22778;SDS011;11556;51.194;3.800;2024-03-08T11:36:59;25.05;;;14.40;;
22778;SDS011;11556;51.194;3.800;2024-03-08T11:39:25;21.33;;;12.55;;
22778;SDS011;11556;51.194;3.800;2024-03-08T11:41:51;22.88;;;13.55;;
22778;SDS011;11556;51.194;3.800;2024-03-08T11:44:17;27.40;;;15.13;;
22778;SDS011;11556;51.194;3.800;2024-03-08T11:46:43;24.77;;;14.68;;
22778;SDS011;11556;51.194;3.800;2024-03-08T11:49:13;22.52;;;14.40;;
22778;SDS011;11556;51.194;3.800;2024-03-08T11:51:39;22.42;;;14.23;;
22778;SDS011;11556;51.194;3.800;2024-03-08T11:54:06;24.33;;;14.88;;
22778;SDS011;11556;51.194;3.800;2024-03-08T11:56:36;26.42;;;13.98;;
22778;SDS011;11556;51.194;3.800;2024-03-08T11:59:02;24.58;;;13.20;;
22778;SDS011;11556;51.194;3.800;2024-03-08T12:01:28;23.80;;;13.55;;
22778;SDS011;11556;51.194;3.800;2024-03-08T12:03:54;22.10;;;12.85;;
22778;SDS011;11556;51.194;3.800;2024-03-08T12:06:23;24.25;;;13.82;;
22778;SDS011;11556;51.194;3.800;2024-03-08T12:08:49;21.13;;;13.05;;
22778;SDS011;11556;51.194;3.800;2024-03-08T12:11:15;21.20;;;13.98;;
22778;SDS011;11556;51.194;3.800;2024-03-08T12:13:48;24.80;;;14.45;;
22778;SDS011;11556;51.194;3.800;2024-03-08T12:16:16;23.77;;;14.27;;
22778;SDS011;11556;51.194;3.800;2024-03-08T12:18:50;23.92;;;14.10;;
22778;SDS011;11556;51.194;3.800;2024-03-08T12:21:17;23.58;;;14.30;;
22778;SDS011;11556;51.194;3.800;2024-03-08T12:23:45;21.55;;;14.30;;
22778;SDS011;11556;51.194;3.800;2024-03-08T12:26:16;23.92;;;13.15;;
22778;SDS011;11556;51.194;3.800;2024-03-08T12:28:48;22.48;;;13.70;;
22778;SDS011;11556;51.194;3.800;2024-03-08T12:31:14;23.67;;;14.05;;
22778;SDS011;11556;51.194;3.800;2024-03-08T12:33:48;24.73;;;14.65;;
22778;SDS011;11556;51.194;3.800;2024-03-08T12:36:24;23.90;;;14.63;;
22778;SDS011;11556;51.194;3.800;2024-03-08T12:38:50;19.80;;;14.15;;
22778;SDS011;11556;51.194;3.800;2024-03-08T12:41:19;24.33;;;14.13;;
22778;SDS011;11556;51.194;3.800;2024-03-08T12:43:46;21.52;;;13.65;;
22778;SDS011;11556;51.194;3.800;2024-03-08T12:46:15;21.35;;;13.82;;
22778;SDS011;11556;51.194;3.800;2024-03-08T12:48:42;21.20;;;13.82;;
22778;SDS011;11556;51.194;3.800;2024-03-08T12:51:12;22.58;;;13.25;;
22778;SDS011;11556;51.194;3.800;2024-03-08T12:56:13;21.35;;;14.10;;
22778;SDS011;11556;51.194;3.800;2024-03-08T12:58:53;20.27;;;13.45;;
22778;SDS011;11556;51.194;3.800;2024-03-08T13:01:19;20.10;;;13.65;;
22778;SDS011;11556;51.194;3.800;2024-03-08T13:03:44;24.88;;;13.77;;
22778;SDS011;11556;51.194;3.800;2024-03-08T13:06:11;21.42;;;13.45;;
22778;SDS011;11556;51.194;3.800;2024-03-08T13:08:37;21.83;;;11.98;;
22778;SDS011;11556;51.194;3.800;2024-03-08T13:11:04;20.40;;;13.25;;
22778;SDS011;11556;51.194;3.800;2024-03-08T13:13:32;22.02;;;14.02;;
22778;SDS011;11556;51.194;3.800;2024-03-08T13:16:00;21.70;;;13.57;;
22778;SDS011;11556;51.194;3.800;2024-03-08T13:18:26;23.65;;;14.35;;
22778;SDS011;11556;51.194;3.800;2024-03-08T13:20:52;27.33;;;13.57;;
22778;SDS011;11556;51.194;3.800;2024-03-08T13:23:19;25.77;;;14.10;;
22778;SDS011;11556;51.194;3.800;2024-03-08T13:25:45;24.50;;;13.82;;
22778;SDS011;11556;51.194;3.800;2024-03-08T13:28:12;22.20;;;14.70;;
22778;SDS011;11556;51.194;3.800;2024-03-08T13:30:38;22.83;;;12.23;;
22778;SDS011;11556;51.194;3.800;2024-03-08T13:33:04;21.52;;;14.32;;
22778;SDS011;11556;51.194;3.800;2024-03-08T13:35:30;19.27;;;12.63;;
22778;SDS011;11556;51.194;3.800;2024-03-08T13:37:57;22.00;;;12.40;;
22778;SDS011;11556;51.194;3.800;2024-03-08T13:40:23;20.10;;;13.30;;
22778;SDS011;11556;51.194;3.800;2024-03-08T13:42:48;21.55;;;13.73;;
22778;SDS011;11556;51.194;3.800;2024-03-08T13:45:14;23.17;;;13.05;;
22778;SDS011;11556;51.194;3.800;2024-03-08T13:47:47;21.05;;;12.88;;
22778;SDS011;11556;51.194;3.800;2024-03-08T13:50:14;21.33;;;12.60;;
22778;SDS011;11556;51.194;3.800;2024-03-08T13:52:46;21.00;;;12.93;;
22778;SDS011;11556;51.194;3.800;2024-03-08T13:55:14;25.48;;;13.52;;
22778;SDS011;11556;51.194;3.800;2024-03-08T13:57:39;21.10;;;12.88;;
22778;SDS011;11556;51.194;3.800;2024-03-08T14:00:05;23.15;;;14.30;;
22778;SDS011;11556;51.194;3.800;2024-03-08T14:02:32;22.67;;;13.82;;
22778;SDS011;11556;51.194;3.800;2024-03-08T14:04:58;22.08;;;14.00;;
22778;SDS011;11556;51.194;3.800;2024-03-08T14:07:26;21.67;;;13.30;;
22778;SDS011;11556;51.194;3.800;2024-03-08T14:09:54;22.45;;;13.23;;
22778;SDS011;11556;51.194;3.800;2024-03-08T14:12:19;23.30;;;13.43;;
22778;SDS011;11556;51.194;3.800;2024-03-08T14:14:45;25.10;;;14.07;;
22778;SDS011;11556;51.194;3.800;2024-03-08T14:17:11;20.95;;;13.07;;
22778;SDS011;11556;51.194;3.800;2024-03-08T14:19:42;20.00;;;12.93;;
22778;SDS011;11556;51.194;3.800;2024-03-08T14:22:07;23.67;;;13.95;;
22778;SDS011;11556;51.194;3.800;2024-03-08T14:24:37;22.30;;;13.13;;
22778;SDS011;11556;51.194;3.800;2024-03-08T14:27:04;22.20;;;13.70;;
22778;SDS011;11556;51.194;3.800;2024-03-08T14:29:33;24.55;;;14.50;;
22778;SDS011;11556;51.194;3.800;2024-03-08T14:31:59;21.00;;;13.98;;
22778;SDS011;11556;51.194;3.800;2024-03-08T14:34:25;23.85;;;14.05;;
22778;SDS011;11556;51.194;3.800;2024-03-08T14:36:52;22.98;;;13.93;;